<?xml version="1.0" encoding="UTF-8" standalone="no" ?>
<gpx xmlns="http://www.topografix.com/GPX/1/1" xmlns:xsi="http://www.w3.org/2001/XMLSchema-instance" xsi:schemaLocation="http://www.topografix.com/GPX/1/1 http://www.topografix.com/GPX/1/1/gpx.xsd" version="1.1" creator="VisuGPX - https://www.visugpx.com">
  <metadata>
    <name>Balade vélo Cahagnes-St Jean-Caumont l'éventé-Cahagnes</name>
    <desc><![CDATA[balade courte dans le calvados]]></desc>
  </metadata>
  <trk>
    <name><![CDATA[Cahagnes-StJean-Caumont-Cahagnes]]></name>
    <trkseg>
      <trkpt lat="49.06606" lon="-0.77127">
        <ele>129</ele>
        <time>2014-07-15T06:49:37Z</time>
      </trkpt>
      <trkpt lat="49.06593" lon="-0.77112">
        <ele>129</ele>
        <time>2014-07-15T06:49:47Z</time>
      </trkpt>
      <trkpt lat="49.0656" lon="-0.77064">
        <ele>128</ele>
        <time>2014-07-15T06:49:57Z</time>
      </trkpt>
      <trkpt lat="49.0653" lon="-0.76987">
        <ele>125</ele>
        <time>2014-07-15T06:50:07Z</time>
      </trkpt>
      <trkpt lat="49.06531" lon="-0.76958">
        <ele>124</ele>
        <time>2014-07-15T06:50:17Z</time>
      </trkpt>
      <trkpt lat="49.06555" lon="-0.76911">
        <ele>123</ele>
        <time>2014-07-15T06:50:27Z</time>
      </trkpt>
      <trkpt lat="49.06578" lon="-0.76885">
        <ele>124</ele>
        <time>2014-07-15T06:50:38Z</time>
      </trkpt>
      <trkpt lat="49.06568" lon="-0.769">
        <ele>124</ele>
        <time>2014-07-15T06:50:49Z</time>
      </trkpt>
      <trkpt lat="49.06558" lon="-0.76893">
        <ele>123</ele>
        <time>2014-07-15T06:50:59Z</time>
      </trkpt>
      <trkpt lat="49.06556" lon="-0.76888">
        <ele>123</ele>
        <time>2014-07-15T06:51:10Z</time>
      </trkpt>
      <trkpt lat="49.06547" lon="-0.76835">
        <ele>121</ele>
        <time>2014-07-15T06:51:21Z</time>
      </trkpt>
      <trkpt lat="49.06541" lon="-0.7679">
        <ele>119</ele>
        <time>2014-07-15T06:51:32Z</time>
      </trkpt>
      <trkpt lat="49.06526" lon="-0.76764">
        <ele>119</ele>
        <time>2014-07-15T06:51:42Z</time>
      </trkpt>
      <trkpt lat="49.06497" lon="-0.76762">
        <ele>116</ele>
        <time>2014-07-15T06:51:52Z</time>
      </trkpt>
      <trkpt lat="49.06444" lon="-0.76741">
        <ele>114</ele>
        <time>2014-07-15T06:52:03Z</time>
      </trkpt>
      <trkpt lat="49.06387" lon="-0.76678">
        <ele>109</ele>
        <time>2014-07-15T06:52:14Z</time>
      </trkpt>
      <trkpt lat="49.06327" lon="-0.76576">
        <ele>103</ele>
        <time>2014-07-15T06:52:25Z</time>
      </trkpt>
      <trkpt lat="49.06279" lon="-0.76485">
        <ele>97</ele>
        <time>2014-07-15T06:52:35Z</time>
      </trkpt>
      <trkpt lat="49.06226" lon="-0.76364">
        <ele>93</ele>
        <time>2014-07-15T06:52:46Z</time>
      </trkpt>
      <trkpt lat="49.06171" lon="-0.76249">
        <ele>89</ele>
        <time>2014-07-15T06:52:56Z</time>
      </trkpt>
      <trkpt lat="49.06119" lon="-0.76149">
        <ele>88</ele>
        <time>2014-07-15T06:53:07Z</time>
      </trkpt>
      <trkpt lat="49.0607" lon="-0.7607">
        <ele>91</ele>
        <time>2014-07-15T06:53:18Z</time>
      </trkpt>
      <trkpt lat="49.06024" lon="-0.76027">
        <ele>93</ele>
        <time>2014-07-15T06:53:28Z</time>
      </trkpt>
      <trkpt lat="49.0599" lon="-0.76075">
        <ele>97</ele>
        <time>2014-07-15T06:53:39Z</time>
      </trkpt>
      <trkpt lat="49.05961" lon="-0.76132">
        <ele>98</ele>
        <time>2014-07-15T06:53:50Z</time>
      </trkpt>
      <trkpt lat="49.05935" lon="-0.7618">
        <ele>100</ele>
        <time>2014-07-15T06:54:00Z</time>
      </trkpt>
      <trkpt lat="49.05893" lon="-0.76207">
        <ele>102</ele>
        <time>2014-07-15T06:54:11Z</time>
      </trkpt>
      <trkpt lat="49.05851" lon="-0.76218">
        <ele>104</ele>
        <time>2014-07-15T06:54:21Z</time>
      </trkpt>
      <trkpt lat="49.05804" lon="-0.7623">
        <ele>105</ele>
        <time>2014-07-15T06:54:32Z</time>
      </trkpt>
      <trkpt lat="49.05758" lon="-0.76231">
        <ele>106</ele>
        <time>2014-07-15T06:54:42Z</time>
      </trkpt>
      <trkpt lat="49.05706" lon="-0.76229">
        <ele>107</ele>
        <time>2014-07-15T06:54:53Z</time>
      </trkpt>
      <trkpt lat="49.0565" lon="-0.76232">
        <ele>107</ele>
        <time>2014-07-15T06:55:04Z</time>
      </trkpt>
      <trkpt lat="49.05597" lon="-0.76243">
        <ele>107</ele>
        <time>2014-07-15T06:55:14Z</time>
      </trkpt>
      <trkpt lat="49.05533" lon="-0.7626">
        <ele>106</ele>
        <time>2014-07-15T06:55:25Z</time>
      </trkpt>
      <trkpt lat="49.05477" lon="-0.76284">
        <ele>105</ele>
        <time>2014-07-15T06:55:35Z</time>
      </trkpt>
      <trkpt lat="49.05417" lon="-0.76312">
        <ele>105</ele>
        <time>2014-07-15T06:55:46Z</time>
      </trkpt>
      <trkpt lat="49.05358" lon="-0.76339">
        <ele>105</ele>
        <time>2014-07-15T06:55:56Z</time>
      </trkpt>
      <trkpt lat="49.05292" lon="-0.76382">
        <ele>104</ele>
        <time>2014-07-15T06:56:07Z</time>
      </trkpt>
      <trkpt lat="49.05238" lon="-0.76364">
        <ele>105</ele>
        <time>2014-07-15T06:56:17Z</time>
      </trkpt>
      <trkpt lat="49.05199" lon="-0.7632">
        <ele>106</ele>
        <time>2014-07-15T06:56:27Z</time>
      </trkpt>
      <trkpt lat="49.05163" lon="-0.76279">
        <ele>108</ele>
        <time>2014-07-15T06:56:37Z</time>
      </trkpt>
      <trkpt lat="49.05123" lon="-0.7624">
        <ele>109</ele>
        <time>2014-07-15T06:56:47Z</time>
      </trkpt>
      <trkpt lat="49.05077" lon="-0.76217">
        <ele>111</ele>
        <time>2014-07-15T06:56:58Z</time>
      </trkpt>
      <trkpt lat="49.05037" lon="-0.76231">
        <ele>113</ele>
        <time>2014-07-15T06:57:08Z</time>
      </trkpt>
      <trkpt lat="49.04999" lon="-0.76285">
        <ele>113</ele>
        <time>2014-07-15T06:57:19Z</time>
      </trkpt>
      <trkpt lat="49.04963" lon="-0.76341">
        <ele>114</ele>
        <time>2014-07-15T06:57:30Z</time>
      </trkpt>
      <trkpt lat="49.04922" lon="-0.76398">
        <ele>114</ele>
        <time>2014-07-15T06:57:41Z</time>
      </trkpt>
      <trkpt lat="49.04891" lon="-0.76459">
        <ele>116</ele>
        <time>2014-07-15T06:57:51Z</time>
      </trkpt>
      <trkpt lat="49.0486" lon="-0.76508">
        <ele>116</ele>
        <time>2014-07-15T06:58:02Z</time>
      </trkpt>
      <trkpt lat="49.04825" lon="-0.76532">
        <ele>119</ele>
        <time>2014-07-15T06:58:12Z</time>
      </trkpt>
      <trkpt lat="49.0479" lon="-0.76546">
        <ele>120</ele>
        <time>2014-07-15T06:58:22Z</time>
      </trkpt>
      <trkpt lat="49.04751" lon="-0.76555">
        <ele>122</ele>
        <time>2014-07-15T06:58:32Z</time>
      </trkpt>
      <trkpt lat="49.04712" lon="-0.76546">
        <ele>122</ele>
        <time>2014-07-15T06:58:42Z</time>
      </trkpt>
      <trkpt lat="49.04683" lon="-0.76554">
        <ele>123</ele>
        <time>2014-07-15T06:58:52Z</time>
      </trkpt>
      <trkpt lat="49.04681" lon="-0.76549">
        <ele>122</ele>
        <time>2014-07-15T06:59:03Z</time>
      </trkpt>
      <trkpt lat="49.04678" lon="-0.76513">
        <ele>123</ele>
        <time>2014-07-15T06:59:14Z</time>
      </trkpt>
      <trkpt lat="49.04636" lon="-0.76484">
        <ele>125</ele>
        <time>2014-07-15T06:59:25Z</time>
      </trkpt>
      <trkpt lat="49.04586" lon="-0.76488">
        <ele>125</ele>
        <time>2014-07-15T06:59:36Z</time>
      </trkpt>
      <trkpt lat="49.04542" lon="-0.76516">
        <ele>126</ele>
        <time>2014-07-15T06:59:46Z</time>
      </trkpt>
      <trkpt lat="49.04497" lon="-0.76552">
        <ele>127</ele>
        <time>2014-07-15T06:59:57Z</time>
      </trkpt>
      <trkpt lat="49.04451" lon="-0.76566">
        <ele>129</ele>
        <time>2014-07-15T07:00:08Z</time>
      </trkpt>
      <trkpt lat="49.04412" lon="-0.76568">
        <ele>131</ele>
        <time>2014-07-15T07:00:19Z</time>
      </trkpt>
      <trkpt lat="49.04382" lon="-0.76569">
        <ele>134</ele>
        <time>2014-07-15T07:00:29Z</time>
      </trkpt>
      <trkpt lat="49.04353" lon="-0.76571">
        <ele>136</ele>
        <time>2014-07-15T07:00:39Z</time>
      </trkpt>
      <trkpt lat="49.04324" lon="-0.76589">
        <ele>139</ele>
        <time>2014-07-15T07:00:50Z</time>
      </trkpt>
      <trkpt lat="49.043" lon="-0.76609">
        <ele>141</ele>
        <time>2014-07-15T07:01:01Z</time>
      </trkpt>
      <trkpt lat="49.04279" lon="-0.76621">
        <ele>143</ele>
        <time>2014-07-15T07:01:11Z</time>
      </trkpt>
      <trkpt lat="49.04255" lon="-0.76631">
        <ele>145</ele>
        <time>2014-07-15T07:01:21Z</time>
      </trkpt>
      <trkpt lat="49.04224" lon="-0.76635">
        <ele>147</ele>
        <time>2014-07-15T07:01:32Z</time>
      </trkpt>
      <trkpt lat="49.04196" lon="-0.76633">
        <ele>149</ele>
        <time>2014-07-15T07:01:42Z</time>
      </trkpt>
      <trkpt lat="49.04166" lon="-0.76624">
        <ele>150</ele>
        <time>2014-07-15T07:01:52Z</time>
      </trkpt>
      <trkpt lat="49.04124" lon="-0.76608">
        <ele>151</ele>
        <time>2014-07-15T07:02:03Z</time>
      </trkpt>
      <trkpt lat="49.04117" lon="-0.76657">
        <ele>150</ele>
        <time>2014-07-15T07:02:13Z</time>
      </trkpt>
      <trkpt lat="49.04142" lon="-0.76761">
        <ele>145</ele>
        <time>2014-07-15T07:02:23Z</time>
      </trkpt>
      <trkpt lat="49.04172" lon="-0.76869">
        <ele>139</ele>
        <time>2014-07-15T07:02:34Z</time>
      </trkpt>
      <trkpt lat="49.04211" lon="-0.77012">
        <ele>133</ele>
        <time>2014-07-15T07:02:45Z</time>
      </trkpt>
      <trkpt lat="49.04252" lon="-0.77166">
        <ele>128</ele>
        <time>2014-07-15T07:02:56Z</time>
      </trkpt>
      <trkpt lat="49.04283" lon="-0.77276">
        <ele>128</ele>
        <time>2014-07-15T07:03:06Z</time>
      </trkpt>
      <trkpt lat="49.04313" lon="-0.77387">
        <ele>128</ele>
        <time>2014-07-15T07:03:17Z</time>
      </trkpt>
      <trkpt lat="49.0434" lon="-0.77489">
        <ele>127</ele>
        <time>2014-07-15T07:03:27Z</time>
      </trkpt>
      <trkpt lat="49.04335" lon="-0.776">
        <ele>126</ele>
        <time>2014-07-15T07:03:37Z</time>
      </trkpt>
      <trkpt lat="49.04322" lon="-0.77703">
        <ele>127</ele>
        <time>2014-07-15T07:03:47Z</time>
      </trkpt>
      <trkpt lat="49.0431" lon="-0.77794">
        <ele>126</ele>
        <time>2014-07-15T07:03:57Z</time>
      </trkpt>
      <trkpt lat="49.04306" lon="-0.77898">
        <ele>125</ele>
        <time>2014-07-15T07:04:08Z</time>
      </trkpt>
      <trkpt lat="49.04332" lon="-0.78013">
        <ele>122</ele>
        <time>2014-07-15T07:04:19Z</time>
      </trkpt>
      <trkpt lat="49.04356" lon="-0.78091">
        <ele>125</ele>
        <time>2014-07-15T07:04:29Z</time>
      </trkpt>
      <trkpt lat="49.0437" lon="-0.78164">
        <ele>128</ele>
        <time>2014-07-15T07:04:40Z</time>
      </trkpt>
      <trkpt lat="49.04374" lon="-0.78228">
        <ele>131</ele>
        <time>2014-07-15T07:04:51Z</time>
      </trkpt>
      <trkpt lat="49.04369" lon="-0.78291">
        <ele>133</ele>
        <time>2014-07-15T07:05:02Z</time>
      </trkpt>
      <trkpt lat="49.04359" lon="-0.78345">
        <ele>135</ele>
        <time>2014-07-15T07:05:12Z</time>
      </trkpt>
      <trkpt lat="49.0435" lon="-0.78393">
        <ele>137</ele>
        <time>2014-07-15T07:05:22Z</time>
      </trkpt>
      <trkpt lat="49.0434" lon="-0.78446">
        <ele>139</ele>
        <time>2014-07-15T07:05:33Z</time>
      </trkpt>
      <trkpt lat="49.04337" lon="-0.78498">
        <ele>141</ele>
        <time>2014-07-15T07:05:43Z</time>
      </trkpt>
      <trkpt lat="49.04341" lon="-0.78561">
        <ele>142</ele>
        <time>2014-07-15T07:05:54Z</time>
      </trkpt>
      <trkpt lat="49.04352" lon="-0.78626">
        <ele>142</ele>
        <time>2014-07-15T07:06:05Z</time>
      </trkpt>
      <trkpt lat="49.04361" lon="-0.78689">
        <ele>144</ele>
        <time>2014-07-15T07:06:15Z</time>
      </trkpt>
      <trkpt lat="49.04371" lon="-0.78753">
        <ele>145</ele>
        <time>2014-07-15T07:06:26Z</time>
      </trkpt>
      <trkpt lat="49.04382" lon="-0.78812">
        <ele>147</ele>
        <time>2014-07-15T07:06:37Z</time>
      </trkpt>
      <trkpt lat="49.04397" lon="-0.78862">
        <ele>148</ele>
        <time>2014-07-15T07:06:47Z</time>
      </trkpt>
      <trkpt lat="49.04425" lon="-0.7891">
        <ele>148</ele>
        <time>2014-07-15T07:06:57Z</time>
      </trkpt>
      <trkpt lat="49.04473" lon="-0.78955">
        <ele>149</ele>
        <time>2014-07-15T07:07:08Z</time>
      </trkpt>
      <trkpt lat="49.0453" lon="-0.79014">
        <ele>146</ele>
        <time>2014-07-15T07:07:18Z</time>
      </trkpt>
      <trkpt lat="49.04591" lon="-0.79127">
        <ele>142</ele>
        <time>2014-07-15T07:07:29Z</time>
      </trkpt>
      <trkpt lat="49.04638" lon="-0.7923">
        <ele>139</ele>
        <time>2014-07-15T07:07:39Z</time>
      </trkpt>
      <trkpt lat="49.04674" lon="-0.79311">
        <ele>136</ele>
        <time>2014-07-15T07:07:49Z</time>
      </trkpt>
      <trkpt lat="49.0466" lon="-0.79382">
        <ele>135</ele>
        <time>2014-07-15T07:08:00Z</time>
      </trkpt>
      <trkpt lat="49.04631" lon="-0.79443">
        <ele>137</ele>
        <time>2014-07-15T07:08:10Z</time>
      </trkpt>
      <trkpt lat="49.04603" lon="-0.79514">
        <ele>138</ele>
        <time>2014-07-15T07:08:20Z</time>
      </trkpt>
      <trkpt lat="49.04575" lon="-0.79588">
        <ele>138</ele>
        <time>2014-07-15T07:08:30Z</time>
      </trkpt>
      <trkpt lat="49.04553" lon="-0.7967">
        <ele>136</ele>
        <time>2014-07-15T07:08:40Z</time>
      </trkpt>
      <trkpt lat="49.04528" lon="-0.79767">
        <ele>135</ele>
        <time>2014-07-15T07:08:51Z</time>
      </trkpt>
      <trkpt lat="49.04506" lon="-0.79877">
        <ele>134</ele>
        <time>2014-07-15T07:09:01Z</time>
      </trkpt>
      <trkpt lat="49.04484" lon="-0.79999">
        <ele>132</ele>
        <time>2014-07-15T07:09:12Z</time>
      </trkpt>
      <trkpt lat="49.04466" lon="-0.80112">
        <ele>130</ele>
        <time>2014-07-15T07:09:22Z</time>
      </trkpt>
      <trkpt lat="49.04448" lon="-0.80227">
        <ele>128</ele>
        <time>2014-07-15T07:09:32Z</time>
      </trkpt>
      <trkpt lat="49.04416" lon="-0.80344">
        <ele>127</ele>
        <time>2014-07-15T07:09:43Z</time>
      </trkpt>
      <trkpt lat="49.04366" lon="-0.80426">
        <ele>126</ele>
        <time>2014-07-15T07:09:53Z</time>
      </trkpt>
      <trkpt lat="49.04326" lon="-0.8053">
        <ele>125</ele>
        <time>2014-07-15T07:10:04Z</time>
      </trkpt>
      <trkpt lat="49.04296" lon="-0.80626">
        <ele>125</ele>
        <time>2014-07-15T07:10:14Z</time>
      </trkpt>
      <trkpt lat="49.04252" lon="-0.80651">
        <ele>123</ele>
        <time>2014-07-15T07:10:24Z</time>
      </trkpt>
      <trkpt lat="49.04211" lon="-0.80649">
        <ele>127</ele>
        <time>2014-07-15T07:10:34Z</time>
      </trkpt>
      <trkpt lat="49.04181" lon="-0.80681">
        <ele>130</ele>
        <time>2014-07-15T07:10:44Z</time>
      </trkpt>
      <trkpt lat="49.0415" lon="-0.80721">
        <ele>133</ele>
        <time>2014-07-15T07:10:55Z</time>
      </trkpt>
      <trkpt lat="49.04123" lon="-0.80751">
        <ele>136</ele>
        <time>2014-07-15T07:11:06Z</time>
      </trkpt>
      <trkpt lat="49.04095" lon="-0.80772">
        <ele>140</ele>
        <time>2014-07-15T07:11:17Z</time>
      </trkpt>
      <trkpt lat="49.04071" lon="-0.80786">
        <ele>142</ele>
        <time>2014-07-15T07:11:28Z</time>
      </trkpt>
      <trkpt lat="49.04055" lon="-0.80794">
        <ele>143</ele>
        <time>2014-07-15T07:11:38Z</time>
      </trkpt>
      <trkpt lat="49.04045" lon="-0.808">
        <ele>145</ele>
        <time>2014-07-15T07:11:49Z</time>
      </trkpt>
      <trkpt lat="49.04022" lon="-0.80811">
        <ele>147</ele>
        <time>2014-07-15T07:12:00Z</time>
      </trkpt>
      <trkpt lat="49.04001" lon="-0.80819">
        <ele>148</ele>
        <time>2014-07-15T07:12:10Z</time>
      </trkpt>
      <trkpt lat="49.03978" lon="-0.80822">
        <ele>151</ele>
        <time>2014-07-15T07:12:21Z</time>
      </trkpt>
      <trkpt lat="49.03956" lon="-0.80819">
        <ele>152</ele>
        <time>2014-07-15T07:12:32Z</time>
      </trkpt>
      <trkpt lat="49.03936" lon="-0.80835">
        <ele>153</ele>
        <time>2014-07-15T07:12:42Z</time>
      </trkpt>
      <trkpt lat="49.03908" lon="-0.80885">
        <ele>152</ele>
        <time>2014-07-15T07:12:53Z</time>
      </trkpt>
      <trkpt lat="49.03871" lon="-0.80961">
        <ele>148</ele>
        <time>2014-07-15T07:13:03Z</time>
      </trkpt>
      <trkpt lat="49.03857" lon="-0.81107">
        <ele>143</ele>
        <time>2014-07-15T07:13:14Z</time>
      </trkpt>
      <trkpt lat="49.03842" lon="-0.81229">
        <ele>142</ele>
        <time>2014-07-15T07:13:25Z</time>
      </trkpt>
      <trkpt lat="49.0382" lon="-0.81326">
        <ele>140</ele>
        <time>2014-07-15T07:13:36Z</time>
      </trkpt>
      <trkpt lat="49.03812" lon="-0.81416">
        <ele>139</ele>
        <time>2014-07-15T07:13:47Z</time>
      </trkpt>
      <trkpt lat="49.03822" lon="-0.81517">
        <ele>138</ele>
        <time>2014-07-15T07:13:58Z</time>
      </trkpt>
      <trkpt lat="49.0382" lon="-0.81614">
        <ele>137</ele>
        <time>2014-07-15T07:14:09Z</time>
      </trkpt>
      <trkpt lat="49.03803" lon="-0.81713">
        <ele>136</ele>
        <time>2014-07-15T07:14:20Z</time>
      </trkpt>
      <trkpt lat="49.03784" lon="-0.8182">
        <ele>136</ele>
        <time>2014-07-15T07:14:31Z</time>
      </trkpt>
      <trkpt lat="49.03769" lon="-0.81925">
        <ele>135</ele>
        <time>2014-07-15T07:14:41Z</time>
      </trkpt>
      <trkpt lat="49.0376" lon="-0.82047">
        <ele>134</ele>
        <time>2014-07-15T07:14:52Z</time>
      </trkpt>
      <trkpt lat="49.0375" lon="-0.82158">
        <ele>131</ele>
        <time>2014-07-15T07:15:03Z</time>
      </trkpt>
      <trkpt lat="49.03733" lon="-0.82283">
        <ele>130</ele>
        <time>2014-07-15T07:15:14Z</time>
      </trkpt>
      <trkpt lat="49.03696" lon="-0.82391">
        <ele>128</ele>
        <time>2014-07-15T07:15:25Z</time>
      </trkpt>
      <trkpt lat="49.03668" lon="-0.8252">
        <ele>126</ele>
        <time>2014-07-15T07:15:36Z</time>
      </trkpt>
      <trkpt lat="49.03645" lon="-0.82674">
        <ele>121</ele>
        <time>2014-07-15T07:15:46Z</time>
      </trkpt>
      <trkpt lat="49.03626" lon="-0.8282">
        <ele>115</ele>
        <time>2014-07-15T07:15:56Z</time>
      </trkpt>
      <trkpt lat="49.03612" lon="-0.82902">
        <ele>111</ele>
        <time>2014-07-15T07:16:06Z</time>
      </trkpt>
      <trkpt lat="49.03608" lon="-0.82934">
        <ele>110</ele>
        <time>2014-07-15T07:16:17Z</time>
      </trkpt>
      <trkpt lat="49.03599" lon="-0.83002">
        <ele>110</ele>
        <time>2014-07-15T07:16:27Z</time>
      </trkpt>
      <trkpt lat="49.03587" lon="-0.83095">
        <ele>111</ele>
        <time>2014-07-15T07:16:38Z</time>
      </trkpt>
      <trkpt lat="49.03577" lon="-0.83182">
        <ele>109</ele>
        <time>2014-07-15T07:16:48Z</time>
      </trkpt>
      <trkpt lat="49.03574" lon="-0.83271">
        <ele>110</ele>
        <time>2014-07-15T07:16:58Z</time>
      </trkpt>
      <trkpt lat="49.03571" lon="-0.83355">
        <ele>109</ele>
        <time>2014-07-15T07:17:09Z</time>
      </trkpt>
      <trkpt lat="49.03603" lon="-0.83406">
        <ele>108</ele>
        <time>2014-07-15T07:17:19Z</time>
      </trkpt>
      <trkpt lat="49.03684" lon="-0.83444">
        <ele>104</ele>
        <time>2014-07-15T07:17:30Z</time>
      </trkpt>
      <trkpt lat="49.03794" lon="-0.83471">
        <ele>99</ele>
        <time>2014-07-15T07:17:41Z</time>
      </trkpt>
      <trkpt lat="49.03882" lon="-0.83519">
        <ele>95</ele>
        <time>2014-07-15T07:17:51Z</time>
      </trkpt>
      <trkpt lat="49.03967" lon="-0.83581">
        <ele>93</ele>
        <time>2014-07-15T07:18:01Z</time>
      </trkpt>
      <trkpt lat="49.04066" lon="-0.83622">
        <ele>89</ele>
        <time>2014-07-15T07:18:11Z</time>
      </trkpt>
      <trkpt lat="49.0416" lon="-0.83644">
        <ele>86</ele>
        <time>2014-07-15T07:18:21Z</time>
      </trkpt>
      <trkpt lat="49.04221" lon="-0.83659">
        <ele>87</ele>
        <time>2014-07-15T07:18:31Z</time>
      </trkpt>
      <trkpt lat="49.04291" lon="-0.83675">
        <ele>86</ele>
        <time>2014-07-15T07:18:42Z</time>
      </trkpt>
      <trkpt lat="49.04366" lon="-0.83684">
        <ele>81</ele>
        <time>2014-07-15T07:18:52Z</time>
      </trkpt>
      <trkpt lat="49.04431" lon="-0.83737">
        <ele>78</ele>
        <time>2014-07-15T07:19:03Z</time>
      </trkpt>
      <trkpt lat="49.04464" lon="-0.83766">
        <ele>79</ele>
        <time>2014-07-15T07:19:13Z</time>
      </trkpt>
      <trkpt lat="49.04469" lon="-0.83769">
        <ele>79</ele>
        <time>2014-07-15T07:19:25Z</time>
      </trkpt>
      <trkpt lat="49.04468" lon="-0.83769">
        <ele>79</ele>
        <time>2014-07-15T07:19:35Z</time>
      </trkpt>
      <trkpt lat="49.04471" lon="-0.83769">
        <ele>79</ele>
        <time>2014-07-15T07:19:46Z</time>
      </trkpt>
      <trkpt lat="49.04473" lon="-0.83769">
        <ele>79</ele>
        <time>2014-07-15T07:19:57Z</time>
      </trkpt>
      <trkpt lat="49.04473" lon="-0.83769">
        <ele>79</ele>
        <time>2014-07-15T07:20:08Z</time>
      </trkpt>
      <trkpt lat="49.04481" lon="-0.83788">
        <ele>80</ele>
        <time>2014-07-15T07:20:19Z</time>
      </trkpt>
      <trkpt lat="49.04477" lon="-0.83819">
        <ele>80</ele>
        <time>2014-07-15T07:20:29Z</time>
      </trkpt>
      <trkpt lat="49.04495" lon="-0.83844">
        <ele>79</ele>
        <time>2014-07-15T07:20:40Z</time>
      </trkpt>
      <trkpt lat="49.0451" lon="-0.83813">
        <ele>79</ele>
        <time>2014-07-15T07:20:51Z</time>
      </trkpt>
      <trkpt lat="49.04519" lon="-0.83768">
        <ele>80</ele>
        <time>2014-07-15T07:21:01Z</time>
      </trkpt>
      <trkpt lat="49.04521" lon="-0.8375">
        <ele>79</ele>
        <time>2014-07-15T07:21:11Z</time>
      </trkpt>
      <trkpt lat="49.04518" lon="-0.83796">
        <ele>80</ele>
        <time>2014-07-15T07:21:21Z</time>
      </trkpt>
      <trkpt lat="49.04495" lon="-0.8386">
        <ele>80</ele>
        <time>2014-07-15T07:21:32Z</time>
      </trkpt>
      <trkpt lat="49.04481" lon="-0.83967">
        <ele>78</ele>
        <time>2014-07-15T07:21:43Z</time>
      </trkpt>
      <trkpt lat="49.04474" lon="-0.84083">
        <ele>75</ele>
        <time>2014-07-15T07:21:53Z</time>
      </trkpt>
      <trkpt lat="49.04469" lon="-0.84194">
        <ele>72</ele>
        <time>2014-07-15T07:22:03Z</time>
      </trkpt>
      <trkpt lat="49.04477" lon="-0.84315">
        <ele>72</ele>
        <time>2014-07-15T07:22:14Z</time>
      </trkpt>
      <trkpt lat="49.04493" lon="-0.8442">
        <ele>70</ele>
        <time>2014-07-15T07:22:24Z</time>
      </trkpt>
      <trkpt lat="49.04503" lon="-0.84536">
        <ele>68</ele>
        <time>2014-07-15T07:22:35Z</time>
      </trkpt>
      <trkpt lat="49.04506" lon="-0.84643">
        <ele>67</ele>
        <time>2014-07-15T07:22:45Z</time>
      </trkpt>
      <trkpt lat="49.04493" lon="-0.84757">
        <ele>67</ele>
        <time>2014-07-15T07:22:56Z</time>
      </trkpt>
      <trkpt lat="49.04493" lon="-0.84856">
        <ele>66</ele>
        <time>2014-07-15T07:23:06Z</time>
      </trkpt>
      <trkpt lat="49.04499" lon="-0.8497">
        <ele>66</ele>
        <time>2014-07-15T07:23:17Z</time>
      </trkpt>
      <trkpt lat="49.0447" lon="-0.85068">
        <ele>65</ele>
        <time>2014-07-15T07:23:27Z</time>
      </trkpt>
      <trkpt lat="49.04444" lon="-0.85158">
        <ele>66</ele>
        <time>2014-07-15T07:23:37Z</time>
      </trkpt>
      <trkpt lat="49.04428" lon="-0.85238">
        <ele>66</ele>
        <time>2014-07-15T07:23:47Z</time>
      </trkpt>
      <trkpt lat="49.04414" lon="-0.85319">
        <ele>68</ele>
        <time>2014-07-15T07:23:58Z</time>
      </trkpt>
      <trkpt lat="49.04401" lon="-0.85399">
        <ele>71</ele>
        <time>2014-07-15T07:24:09Z</time>
      </trkpt>
      <trkpt lat="49.0439" lon="-0.85471">
        <ele>73</ele>
        <time>2014-07-15T07:24:19Z</time>
      </trkpt>
      <trkpt lat="49.04386" lon="-0.85539">
        <ele>75</ele>
        <time>2014-07-15T07:24:29Z</time>
      </trkpt>
      <trkpt lat="49.04384" lon="-0.85615">
        <ele>76</ele>
        <time>2014-07-15T07:24:40Z</time>
      </trkpt>
      <trkpt lat="49.04383" lon="-0.8569">
        <ele>75</ele>
        <time>2014-07-15T07:24:50Z</time>
      </trkpt>
      <trkpt lat="49.04405" lon="-0.85776">
        <ele>73</ele>
        <time>2014-07-15T07:25:01Z</time>
      </trkpt>
      <trkpt lat="49.04483" lon="-0.85843">
        <ele>70</ele>
        <time>2014-07-15T07:25:12Z</time>
      </trkpt>
      <trkpt lat="49.0456" lon="-0.85956">
        <ele>67</ele>
        <time>2014-07-15T07:25:23Z</time>
      </trkpt>
      <trkpt lat="49.04618" lon="-0.86041">
        <ele>64</ele>
        <time>2014-07-15T07:25:33Z</time>
      </trkpt>
      <trkpt lat="49.04665" lon="-0.86101">
        <ele>63</ele>
        <time>2014-07-15T07:25:43Z</time>
      </trkpt>
      <trkpt lat="49.04706" lon="-0.86014">
        <ele>61</ele>
        <time>2014-07-15T07:25:54Z</time>
      </trkpt>
      <trkpt lat="49.0476" lon="-0.85938">
        <ele>60</ele>
        <time>2014-07-15T07:26:05Z</time>
      </trkpt>
      <trkpt lat="49.04824" lon="-0.85893">
        <ele>60</ele>
        <time>2014-07-15T07:26:16Z</time>
      </trkpt>
      <trkpt lat="49.04884" lon="-0.85844">
        <ele>60</ele>
        <time>2014-07-15T07:26:26Z</time>
      </trkpt>
      <trkpt lat="49.04947" lon="-0.85785">
        <ele>61</ele>
        <time>2014-07-15T07:26:37Z</time>
      </trkpt>
      <trkpt lat="49.05009" lon="-0.85726">
        <ele>62</ele>
        <time>2014-07-15T07:26:48Z</time>
      </trkpt>
      <trkpt lat="49.05069" lon="-0.85666">
        <ele>63</ele>
        <time>2014-07-15T07:26:59Z</time>
      </trkpt>
      <trkpt lat="49.05125" lon="-0.85619">
        <ele>65</ele>
        <time>2014-07-15T07:27:09Z</time>
      </trkpt>
      <trkpt lat="49.05183" lon="-0.85574">
        <ele>65</ele>
        <time>2014-07-15T07:27:20Z</time>
      </trkpt>
      <trkpt lat="49.05232" lon="-0.85546">
        <ele>67</ele>
        <time>2014-07-15T07:27:30Z</time>
      </trkpt>
      <trkpt lat="49.05277" lon="-0.85527">
        <ele>69</ele>
        <time>2014-07-15T07:27:40Z</time>
      </trkpt>
      <trkpt lat="49.05328" lon="-0.85502">
        <ele>71</ele>
        <time>2014-07-15T07:27:51Z</time>
      </trkpt>
      <trkpt lat="49.0537" lon="-0.85481">
        <ele>72</ele>
        <time>2014-07-15T07:28:01Z</time>
      </trkpt>
      <trkpt lat="49.05412" lon="-0.85461">
        <ele>74</ele>
        <time>2014-07-15T07:28:11Z</time>
      </trkpt>
      <trkpt lat="49.05463" lon="-0.85448">
        <ele>75</ele>
        <time>2014-07-15T07:28:22Z</time>
      </trkpt>
      <trkpt lat="49.05518" lon="-0.85438">
        <ele>75</ele>
        <time>2014-07-15T07:28:33Z</time>
      </trkpt>
      <trkpt lat="49.05571" lon="-0.85415">
        <ele>76</ele>
        <time>2014-07-15T07:28:43Z</time>
      </trkpt>
      <trkpt lat="49.05616" lon="-0.85366">
        <ele>75</ele>
        <time>2014-07-15T07:28:53Z</time>
      </trkpt>
      <trkpt lat="49.05657" lon="-0.85302">
        <ele>76</ele>
        <time>2014-07-15T07:29:04Z</time>
      </trkpt>
      <trkpt lat="49.05701" lon="-0.85241">
        <ele>77</ele>
        <time>2014-07-15T07:29:15Z</time>
      </trkpt>
      <trkpt lat="49.05745" lon="-0.85177">
        <ele>78</ele>
        <time>2014-07-15T07:29:26Z</time>
      </trkpt>
      <trkpt lat="49.0578" lon="-0.85111">
        <ele>78</ele>
        <time>2014-07-15T07:29:36Z</time>
      </trkpt>
      <trkpt lat="49.05819" lon="-0.85039">
        <ele>79</ele>
        <time>2014-07-15T07:29:47Z</time>
      </trkpt>
      <trkpt lat="49.0585" lon="-0.84974">
        <ele>80</ele>
        <time>2014-07-15T07:29:57Z</time>
      </trkpt>
      <trkpt lat="49.05877" lon="-0.84915">
        <ele>82</ele>
        <time>2014-07-15T07:30:07Z</time>
      </trkpt>
      <trkpt lat="49.0591" lon="-0.8485">
        <ele>82</ele>
        <time>2014-07-15T07:30:18Z</time>
      </trkpt>
      <trkpt lat="49.05936" lon="-0.84789">
        <ele>84</ele>
        <time>2014-07-15T07:30:28Z</time>
      </trkpt>
      <trkpt lat="49.0597" lon="-0.84724">
        <ele>85</ele>
        <time>2014-07-15T07:30:39Z</time>
      </trkpt>
      <trkpt lat="49.06016" lon="-0.84675">
        <ele>86</ele>
        <time>2014-07-15T07:30:50Z</time>
      </trkpt>
      <trkpt lat="49.06049" lon="-0.84623">
        <ele>87</ele>
        <time>2014-07-15T07:31:00Z</time>
      </trkpt>
      <trkpt lat="49.06081" lon="-0.84575">
        <ele>88</ele>
        <time>2014-07-15T07:31:10Z</time>
      </trkpt>
      <trkpt lat="49.06117" lon="-0.84519">
        <ele>90</ele>
        <time>2014-07-15T07:31:21Z</time>
      </trkpt>
      <trkpt lat="49.06149" lon="-0.84467">
        <ele>91</ele>
        <time>2014-07-15T07:31:31Z</time>
      </trkpt>
      <trkpt lat="49.06181" lon="-0.84406">
        <ele>92</ele>
        <time>2014-07-15T07:31:42Z</time>
      </trkpt>
      <trkpt lat="49.0621" lon="-0.84341">
        <ele>92</ele>
        <time>2014-07-15T07:31:52Z</time>
      </trkpt>
      <trkpt lat="49.06239" lon="-0.84258">
        <ele>92</ele>
        <time>2014-07-15T07:32:03Z</time>
      </trkpt>
      <trkpt lat="49.06269" lon="-0.84185">
        <ele>93</ele>
        <time>2014-07-15T07:32:13Z</time>
      </trkpt>
      <trkpt lat="49.06321" lon="-0.8417">
        <ele>94</ele>
        <time>2014-07-15T07:32:23Z</time>
      </trkpt>
      <trkpt lat="49.06365" lon="-0.84134">
        <ele>95</ele>
        <time>2014-07-15T07:32:34Z</time>
      </trkpt>
      <trkpt lat="49.0639" lon="-0.84067">
        <ele>97</ele>
        <time>2014-07-15T07:32:44Z</time>
      </trkpt>
      <trkpt lat="49.06411" lon="-0.83988">
        <ele>98</ele>
        <time>2014-07-15T07:32:55Z</time>
      </trkpt>
      <trkpt lat="49.06432" lon="-0.83913">
        <ele>98</ele>
        <time>2014-07-15T07:33:06Z</time>
      </trkpt>
      <trkpt lat="49.06453" lon="-0.83846">
        <ele>100</ele>
        <time>2014-07-15T07:33:16Z</time>
      </trkpt>
      <trkpt lat="49.0649" lon="-0.83795">
        <ele>101</ele>
        <time>2014-07-15T07:33:26Z</time>
      </trkpt>
      <trkpt lat="49.06535" lon="-0.83752">
        <ele>101</ele>
        <time>2014-07-15T07:33:36Z</time>
      </trkpt>
      <trkpt lat="49.06583" lon="-0.83696">
        <ele>103</ele>
        <time>2014-07-15T07:33:47Z</time>
      </trkpt>
      <trkpt lat="49.06626" lon="-0.83642">
        <ele>103</ele>
        <time>2014-07-15T07:33:57Z</time>
      </trkpt>
      <trkpt lat="49.06668" lon="-0.83583">
        <ele>105</ele>
        <time>2014-07-15T07:34:08Z</time>
      </trkpt>
      <trkpt lat="49.06704" lon="-0.8353">
        <ele>105</ele>
        <time>2014-07-15T07:34:18Z</time>
      </trkpt>
      <trkpt lat="49.06745" lon="-0.83467">
        <ele>107</ele>
        <time>2014-07-15T07:34:29Z</time>
      </trkpt>
      <trkpt lat="49.06786" lon="-0.83402">
        <ele>108</ele>
        <time>2014-07-15T07:34:40Z</time>
      </trkpt>
      <trkpt lat="49.06822" lon="-0.83337">
        <ele>109</ele>
        <time>2014-07-15T07:34:50Z</time>
      </trkpt>
      <trkpt lat="49.06857" lon="-0.83263">
        <ele>109</ele>
        <time>2014-07-15T07:35:01Z</time>
      </trkpt>
      <trkpt lat="49.06904" lon="-0.83209">
        <ele>110</ele>
        <time>2014-07-15T07:35:12Z</time>
      </trkpt>
      <trkpt lat="49.06946" lon="-0.83166">
        <ele>111</ele>
        <time>2014-07-15T07:35:22Z</time>
      </trkpt>
      <trkpt lat="49.06987" lon="-0.83114">
        <ele>113</ele>
        <time>2014-07-15T07:35:33Z</time>
      </trkpt>
      <trkpt lat="49.07025" lon="-0.83056">
        <ele>114</ele>
        <time>2014-07-15T07:35:44Z</time>
      </trkpt>
      <trkpt lat="49.07053" lon="-0.83">
        <ele>116</ele>
        <time>2014-07-15T07:35:54Z</time>
      </trkpt>
      <trkpt lat="49.07081" lon="-0.82946">
        <ele>117</ele>
        <time>2014-07-15T07:36:04Z</time>
      </trkpt>
      <trkpt lat="49.07112" lon="-0.82895">
        <ele>119</ele>
        <time>2014-07-15T07:36:15Z</time>
      </trkpt>
      <trkpt lat="49.0714" lon="-0.82847">
        <ele>120</ele>
        <time>2014-07-15T07:36:25Z</time>
      </trkpt>
      <trkpt lat="49.07169" lon="-0.82798">
        <ele>121</ele>
        <time>2014-07-15T07:36:35Z</time>
      </trkpt>
      <trkpt lat="49.072" lon="-0.82748">
        <ele>123</ele>
        <time>2014-07-15T07:36:46Z</time>
      </trkpt>
      <trkpt lat="49.07226" lon="-0.82706">
        <ele>124</ele>
        <time>2014-07-15T07:36:56Z</time>
      </trkpt>
      <trkpt lat="49.07253" lon="-0.82661">
        <ele>125</ele>
        <time>2014-07-15T07:37:07Z</time>
      </trkpt>
      <trkpt lat="49.07278" lon="-0.8262">
        <ele>126</ele>
        <time>2014-07-15T07:37:17Z</time>
      </trkpt>
      <trkpt lat="49.07306" lon="-0.82575">
        <ele>128</ele>
        <time>2014-07-15T07:37:28Z</time>
      </trkpt>
      <trkpt lat="49.07329" lon="-0.82534">
        <ele>129</ele>
        <time>2014-07-15T07:37:38Z</time>
      </trkpt>
      <trkpt lat="49.07355" lon="-0.8249">
        <ele>131</ele>
        <time>2014-07-15T07:37:49Z</time>
      </trkpt>
      <trkpt lat="49.07381" lon="-0.82445">
        <ele>133</ele>
        <time>2014-07-15T07:38:00Z</time>
      </trkpt>
      <trkpt lat="49.07405" lon="-0.82398">
        <ele>134</ele>
        <time>2014-07-15T07:38:11Z</time>
      </trkpt>
      <trkpt lat="49.0743" lon="-0.8235">
        <ele>136</ele>
        <time>2014-07-15T07:38:22Z</time>
      </trkpt>
      <trkpt lat="49.07457" lon="-0.82301">
        <ele>137</ele>
        <time>2014-07-15T07:38:33Z</time>
      </trkpt>
      <trkpt lat="49.07482" lon="-0.82255">
        <ele>138</ele>
        <time>2014-07-15T07:38:43Z</time>
      </trkpt>
      <trkpt lat="49.07512" lon="-0.82203">
        <ele>138</ele>
        <time>2014-07-15T07:38:54Z</time>
      </trkpt>
      <trkpt lat="49.07542" lon="-0.82154">
        <ele>138</ele>
        <time>2014-07-15T07:39:04Z</time>
      </trkpt>
      <trkpt lat="49.07571" lon="-0.82107">
        <ele>139</ele>
        <time>2014-07-15T07:39:14Z</time>
      </trkpt>
      <trkpt lat="49.07592" lon="-0.82051">
        <ele>139</ele>
        <time>2014-07-15T07:39:25Z</time>
      </trkpt>
      <trkpt lat="49.07606" lon="-0.82008">
        <ele>138</ele>
        <time>2014-07-15T07:39:35Z</time>
      </trkpt>
      <trkpt lat="49.07608" lon="-0.82006">
        <ele>138</ele>
        <time>2014-07-15T07:39:45Z</time>
      </trkpt>
      <trkpt lat="49.07608" lon="-0.82006">
        <ele>138</ele>
        <time>2014-07-15T07:39:56Z</time>
      </trkpt>
      <trkpt lat="49.07608" lon="-0.82004">
        <ele>138</ele>
        <time>2014-07-15T07:40:07Z</time>
      </trkpt>
      <trkpt lat="49.07608" lon="-0.82002">
        <ele>138</ele>
        <time>2014-07-15T07:40:18Z</time>
      </trkpt>
      <trkpt lat="49.07609" lon="-0.82002">
        <ele>138</ele>
        <time>2014-07-15T07:40:28Z</time>
      </trkpt>
      <trkpt lat="49.0761" lon="-0.82001">
        <ele>138</ele>
        <time>2014-07-15T07:40:39Z</time>
      </trkpt>
      <trkpt lat="49.07612" lon="-0.82001">
        <ele>138</ele>
        <time>2014-07-15T07:40:49Z</time>
      </trkpt>
      <trkpt lat="49.07613" lon="-0.82002">
        <ele>138</ele>
        <time>2014-07-15T07:41:00Z</time>
      </trkpt>
      <trkpt lat="49.07612" lon="-0.82004">
        <ele>137</ele>
        <time>2014-07-15T07:41:11Z</time>
      </trkpt>
      <trkpt lat="49.07611" lon="-0.82006">
        <ele>137</ele>
        <time>2014-07-15T07:41:21Z</time>
      </trkpt>
      <trkpt lat="49.07612" lon="-0.82007">
        <ele>138</ele>
        <time>2014-07-15T07:41:31Z</time>
      </trkpt>
      <trkpt lat="49.07615" lon="-0.82002">
        <ele>138</ele>
        <time>2014-07-15T07:41:42Z</time>
      </trkpt>
      <trkpt lat="49.07622" lon="-0.81968">
        <ele>138</ele>
        <time>2014-07-15T07:41:53Z</time>
      </trkpt>
      <trkpt lat="49.0764" lon="-0.81918">
        <ele>138</ele>
        <time>2014-07-15T07:42:03Z</time>
      </trkpt>
      <trkpt lat="49.07681" lon="-0.81897">
        <ele>139</ele>
        <time>2014-07-15T07:42:14Z</time>
      </trkpt>
      <trkpt lat="49.07723" lon="-0.81876">
        <ele>140</ele>
        <time>2014-07-15T07:42:25Z</time>
      </trkpt>
      <trkpt lat="49.07764" lon="-0.81848">
        <ele>141</ele>
        <time>2014-07-15T07:42:35Z</time>
      </trkpt>
      <trkpt lat="49.07814" lon="-0.81805">
        <ele>141</ele>
        <time>2014-07-15T07:42:46Z</time>
      </trkpt>
      <trkpt lat="49.07861" lon="-0.81755">
        <ele>141</ele>
        <time>2014-07-15T07:42:57Z</time>
      </trkpt>
      <trkpt lat="49.07904" lon="-0.81704">
        <ele>141</ele>
        <time>2014-07-15T07:43:08Z</time>
      </trkpt>
      <trkpt lat="49.07946" lon="-0.81654">
        <ele>142</ele>
        <time>2014-07-15T07:43:18Z</time>
      </trkpt>
      <trkpt lat="49.07986" lon="-0.81597">
        <ele>142</ele>
        <time>2014-07-15T07:43:28Z</time>
      </trkpt>
      <trkpt lat="49.08031" lon="-0.81532">
        <ele>142</ele>
        <time>2014-07-15T07:43:39Z</time>
      </trkpt>
      <trkpt lat="49.08081" lon="-0.81473">
        <ele>141</ele>
        <time>2014-07-15T07:43:49Z</time>
      </trkpt>
      <trkpt lat="49.08128" lon="-0.814">
        <ele>141</ele>
        <time>2014-07-15T07:44:00Z</time>
      </trkpt>
      <trkpt lat="49.08175" lon="-0.81338">
        <ele>141</ele>
        <time>2014-07-15T07:44:11Z</time>
      </trkpt>
      <trkpt lat="49.08234" lon="-0.813">
        <ele>141</ele>
        <time>2014-07-15T07:44:22Z</time>
      </trkpt>
      <trkpt lat="49.08279" lon="-0.81258">
        <ele>143</ele>
        <time>2014-07-15T07:44:32Z</time>
      </trkpt>
      <trkpt lat="49.08322" lon="-0.81242">
        <ele>143</ele>
        <time>2014-07-15T07:44:43Z</time>
      </trkpt>
      <trkpt lat="49.08324" lon="-0.81243">
        <ele>144</ele>
        <time>2014-07-15T07:44:53Z</time>
      </trkpt>
      <trkpt lat="49.08325" lon="-0.81242">
        <ele>144</ele>
        <time>2014-07-15T07:45:04Z</time>
      </trkpt>
      <trkpt lat="49.08645" lon="-0.80838">
        <ele>166</ele>
        <time>2014-07-15T07:45:15Z</time>
      </trkpt>
      <trkpt lat="49.08669" lon="-0.80814">
        <ele>168</ele>
        <time>2014-07-15T07:45:25Z</time>
      </trkpt>
      <trkpt lat="49.08698" lon="-0.80786">
        <ele>170</ele>
        <time>2014-07-15T07:45:36Z</time>
      </trkpt>
      <trkpt lat="49.08725" lon="-0.80757">
        <ele>172</ele>
        <time>2014-07-15T07:45:47Z</time>
      </trkpt>
      <trkpt lat="49.08752" lon="-0.80729">
        <ele>173</ele>
        <time>2014-07-15T07:45:58Z</time>
      </trkpt>
      <trkpt lat="49.08778" lon="-0.80703">
        <ele>175</ele>
        <time>2014-07-15T07:46:08Z</time>
      </trkpt>
      <trkpt lat="49.08802" lon="-0.80679">
        <ele>176</ele>
        <time>2014-07-15T07:46:18Z</time>
      </trkpt>
      <trkpt lat="49.08828" lon="-0.80653">
        <ele>178</ele>
        <time>2014-07-15T07:46:28Z</time>
      </trkpt>
      <trkpt lat="49.08851" lon="-0.80628">
        <ele>180</ele>
        <time>2014-07-15T07:46:38Z</time>
      </trkpt>
      <trkpt lat="49.0888" lon="-0.80606">
        <ele>182</ele>
        <time>2014-07-15T07:46:49Z</time>
      </trkpt>
      <trkpt lat="49.08907" lon="-0.80597">
        <ele>183</ele>
        <time>2014-07-15T07:46:59Z</time>
      </trkpt>
      <trkpt lat="49.08938" lon="-0.80588">
        <ele>185</ele>
        <time>2014-07-15T07:47:10Z</time>
      </trkpt>
      <trkpt lat="49.08968" lon="-0.80585">
        <ele>187</ele>
        <time>2014-07-15T07:47:20Z</time>
      </trkpt>
      <trkpt lat="49.08979" lon="-0.80548">
        <ele>189</ele>
        <time>2014-07-15T07:47:31Z</time>
      </trkpt>
      <trkpt lat="49.0898" lon="-0.805">
        <ele>189</ele>
        <time>2014-07-15T07:47:41Z</time>
      </trkpt>
      <trkpt lat="49.08992" lon="-0.80464">
        <ele>189</ele>
        <time>2014-07-15T07:47:52Z</time>
      </trkpt>
      <trkpt lat="49.09021" lon="-0.80448">
        <ele>190</ele>
        <time>2014-07-15T07:48:02Z</time>
      </trkpt>
      <trkpt lat="49.09056" lon="-0.80413">
        <ele>190</ele>
        <time>2014-07-15T07:48:13Z</time>
      </trkpt>
      <trkpt lat="49.09093" lon="-0.80356">
        <ele>189</ele>
        <time>2014-07-15T07:48:24Z</time>
      </trkpt>
      <trkpt lat="49.091" lon="-0.80275">
        <ele>189</ele>
        <time>2014-07-15T07:48:34Z</time>
      </trkpt>
      <trkpt lat="49.09101" lon="-0.80201">
        <ele>190</ele>
        <time>2014-07-15T07:48:44Z</time>
      </trkpt>
      <trkpt lat="49.09101" lon="-0.80129">
        <ele>193</ele>
        <time>2014-07-15T07:48:54Z</time>
      </trkpt>
      <trkpt lat="49.09106" lon="-0.80039">
        <ele>192</ele>
        <time>2014-07-15T07:49:06Z</time>
      </trkpt>
      <trkpt lat="49.09116" lon="-0.79938">
        <ele>192</ele>
        <time>2014-07-15T07:49:17Z</time>
      </trkpt>
      <trkpt lat="49.09127" lon="-0.79821">
        <ele>189</ele>
        <time>2014-07-15T07:49:28Z</time>
      </trkpt>
      <trkpt lat="49.09143" lon="-0.79684">
        <ele>187</ele>
        <time>2014-07-15T07:49:39Z</time>
      </trkpt>
      <trkpt lat="49.09166" lon="-0.79539">
        <ele>185</ele>
        <time>2014-07-15T07:49:50Z</time>
      </trkpt>
      <trkpt lat="49.09186" lon="-0.79404">
        <ele>183</ele>
        <time>2014-07-15T07:50:00Z</time>
      </trkpt>
      <trkpt lat="49.09202" lon="-0.79243">
        <ele>179</ele>
        <time>2014-07-15T07:50:11Z</time>
      </trkpt>
      <trkpt lat="49.09208" lon="-0.7909">
        <ele>176</ele>
        <time>2014-07-15T07:50:21Z</time>
      </trkpt>
      <trkpt lat="49.09201" lon="-0.78941">
        <ele>173</ele>
        <time>2014-07-15T07:50:31Z</time>
      </trkpt>
      <trkpt lat="49.09201" lon="-0.78804">
        <ele>170</ele>
        <time>2014-07-15T07:50:41Z</time>
      </trkpt>
      <trkpt lat="49.09227" lon="-0.78677">
        <ele>169</ele>
        <time>2014-07-15T07:50:52Z</time>
      </trkpt>
      <trkpt lat="49.09238" lon="-0.78556">
        <ele>170</ele>
        <time>2014-07-15T07:51:03Z</time>
      </trkpt>
      <trkpt lat="49.09245" lon="-0.78475">
        <ele>170</ele>
        <time>2014-07-15T07:51:13Z</time>
      </trkpt>
      <trkpt lat="49.09246" lon="-0.78472">
        <ele>170</ele>
        <time>2014-07-15T07:51:23Z</time>
      </trkpt>
      <trkpt lat="49.09258" lon="-0.78437">
        <ele>169</ele>
        <time>2014-07-15T07:51:33Z</time>
      </trkpt>
      <trkpt lat="49.09271" lon="-0.78371">
        <ele>170</ele>
        <time>2014-07-15T07:51:44Z</time>
      </trkpt>
      <trkpt lat="49.09287" lon="-0.78283">
        <ele>170</ele>
        <time>2014-07-15T07:51:55Z</time>
      </trkpt>
      <trkpt lat="49.09301" lon="-0.78189">
        <ele>169</ele>
        <time>2014-07-15T07:52:05Z</time>
      </trkpt>
      <trkpt lat="49.0932" lon="-0.78061">
        <ele>167</ele>
        <time>2014-07-15T07:52:16Z</time>
      </trkpt>
      <trkpt lat="49.09342" lon="-0.77916">
        <ele>163</ele>
        <time>2014-07-15T07:52:27Z</time>
      </trkpt>
      <trkpt lat="49.09366" lon="-0.77755">
        <ele>157</ele>
        <time>2014-07-15T07:52:38Z</time>
      </trkpt>
      <trkpt lat="49.09389" lon="-0.77569">
        <ele>149</ele>
        <time>2014-07-15T07:52:49Z</time>
      </trkpt>
      <trkpt lat="49.09404" lon="-0.77381">
        <ele>139</ele>
        <time>2014-07-15T07:53:00Z</time>
      </trkpt>
      <trkpt lat="49.0941" lon="-0.77198">
        <ele>129</ele>
        <time>2014-07-15T07:53:10Z</time>
      </trkpt>
      <trkpt lat="49.09414" lon="-0.77016">
        <ele>117</ele>
        <time>2014-07-15T07:53:20Z</time>
      </trkpt>
      <trkpt lat="49.0947" lon="-0.76813">
        <ele>106</ele>
        <time>2014-07-15T07:53:31Z</time>
      </trkpt>
      <trkpt lat="49.09527" lon="-0.76625">
        <ele>102</ele>
        <time>2014-07-15T07:53:42Z</time>
      </trkpt>
      <trkpt lat="49.09526" lon="-0.76469">
        <ele>99</ele>
        <time>2014-07-15T07:53:52Z</time>
      </trkpt>
      <trkpt lat="49.09491" lon="-0.76332">
        <ele>99</ele>
        <time>2014-07-15T07:54:02Z</time>
      </trkpt>
      <trkpt lat="49.09488" lon="-0.76178">
        <ele>97</ele>
        <time>2014-07-15T07:54:13Z</time>
      </trkpt>
      <trkpt lat="49.09486" lon="-0.76044">
        <ele>94</ele>
        <time>2014-07-15T07:54:23Z</time>
      </trkpt>
      <trkpt lat="49.09395" lon="-0.75926">
        <ele>91</ele>
        <time>2014-07-15T07:54:34Z</time>
      </trkpt>
      <trkpt lat="49.09296" lon="-0.75814">
        <ele>81</ele>
        <time>2014-07-15T07:54:44Z</time>
      </trkpt>
      <trkpt lat="49.09195" lon="-0.7571">
        <ele>75</ele>
        <time>2014-07-15T07:54:54Z</time>
      </trkpt>
      <trkpt lat="49.09153" lon="-0.75623">
        <ele>74</ele>
        <time>2014-07-15T07:55:04Z</time>
      </trkpt>
      <trkpt lat="49.09164" lon="-0.75554">
        <ele>78</ele>
        <time>2014-07-15T07:55:15Z</time>
      </trkpt>
      <trkpt lat="49.0915" lon="-0.75494">
        <ele>81</ele>
        <time>2014-07-15T07:55:26Z</time>
      </trkpt>
      <trkpt lat="49.09126" lon="-0.75449">
        <ele>85</ele>
        <time>2014-07-15T07:55:36Z</time>
      </trkpt>
      <trkpt lat="49.09101" lon="-0.75393">
        <ele>86</ele>
        <time>2014-07-15T07:55:47Z</time>
      </trkpt>
      <trkpt lat="49.09078" lon="-0.75329">
        <ele>86</ele>
        <time>2014-07-15T07:55:57Z</time>
      </trkpt>
      <trkpt lat="49.09046" lon="-0.75241">
        <ele>84</ele>
        <time>2014-07-15T07:56:07Z</time>
      </trkpt>
      <trkpt lat="49.08999" lon="-0.75115">
        <ele>81</ele>
        <time>2014-07-15T07:56:18Z</time>
      </trkpt>
      <trkpt lat="49.08958" lon="-0.75003">
        <ele>77</ele>
        <time>2014-07-15T07:56:28Z</time>
      </trkpt>
      <trkpt lat="49.08924" lon="-0.74925">
        <ele>80</ele>
        <time>2014-07-15T07:56:39Z</time>
      </trkpt>
      <trkpt lat="49.08896" lon="-0.74867">
        <ele>83</ele>
        <time>2014-07-15T07:56:49Z</time>
      </trkpt>
      <trkpt lat="49.08868" lon="-0.74811">
        <ele>85</ele>
        <time>2014-07-15T07:57:00Z</time>
      </trkpt>
      <trkpt lat="49.08842" lon="-0.74757">
        <ele>85</ele>
        <time>2014-07-15T07:57:10Z</time>
      </trkpt>
      <trkpt lat="49.08806" lon="-0.74678">
        <ele>84</ele>
        <time>2014-07-15T07:57:21Z</time>
      </trkpt>
      <trkpt lat="49.08768" lon="-0.74568">
        <ele>82</ele>
        <time>2014-07-15T07:57:31Z</time>
      </trkpt>
      <trkpt lat="49.08722" lon="-0.74431">
        <ele>77</ele>
        <time>2014-07-15T07:57:41Z</time>
      </trkpt>
      <trkpt lat="49.0868" lon="-0.74306">
        <ele>74</ele>
        <time>2014-07-15T07:57:51Z</time>
      </trkpt>
      <trkpt lat="49.08641" lon="-0.7419">
        <ele>74</ele>
        <time>2014-07-15T07:58:02Z</time>
      </trkpt>
      <trkpt lat="49.08604" lon="-0.7408">
        <ele>73</ele>
        <time>2014-07-15T07:58:12Z</time>
      </trkpt>
      <trkpt lat="49.08554" lon="-0.73938">
        <ele>71</ele>
        <time>2014-07-15T07:58:23Z</time>
      </trkpt>
      <trkpt lat="49.08492" lon="-0.73764">
        <ele>64</ele>
        <time>2014-07-15T07:58:34Z</time>
      </trkpt>
      <trkpt lat="49.08443" lon="-0.73585">
        <ele>57</ele>
        <time>2014-07-15T07:58:45Z</time>
      </trkpt>
      <trkpt lat="49.08426" lon="-0.73486">
        <ele>60</ele>
        <time>2014-07-15T07:58:55Z</time>
      </trkpt>
      <trkpt lat="49.08422" lon="-0.73419">
        <ele>63</ele>
        <time>2014-07-15T07:59:05Z</time>
      </trkpt>
      <trkpt lat="49.08419" lon="-0.73362">
        <ele>65</ele>
        <time>2014-07-15T07:59:16Z</time>
      </trkpt>
      <trkpt lat="49.08418" lon="-0.73313">
        <ele>68</ele>
        <time>2014-07-15T07:59:27Z</time>
      </trkpt>
      <trkpt lat="49.08417" lon="-0.73264">
        <ele>70</ele>
        <time>2014-07-15T07:59:38Z</time>
      </trkpt>
      <trkpt lat="49.08416" lon="-0.73222">
        <ele>73</ele>
        <time>2014-07-15T07:59:48Z</time>
      </trkpt>
      <trkpt lat="49.08415" lon="-0.73176">
        <ele>76</ele>
        <time>2014-07-15T07:59:59Z</time>
      </trkpt>
      <trkpt lat="49.08411" lon="-0.73135">
        <ele>78</ele>
        <time>2014-07-15T08:00:10Z</time>
      </trkpt>
      <trkpt lat="49.08404" lon="-0.73101">
        <ele>80</ele>
        <time>2014-07-15T08:00:20Z</time>
      </trkpt>
      <trkpt lat="49.08396" lon="-0.73062">
        <ele>82</ele>
        <time>2014-07-15T08:00:31Z</time>
      </trkpt>
      <trkpt lat="49.08387" lon="-0.73021">
        <ele>84</ele>
        <time>2014-07-15T08:00:42Z</time>
      </trkpt>
      <trkpt lat="49.08378" lon="-0.72981">
        <ele>86</ele>
        <time>2014-07-15T08:00:53Z</time>
      </trkpt>
      <trkpt lat="49.08368" lon="-0.72944">
        <ele>88</ele>
        <time>2014-07-15T08:01:03Z</time>
      </trkpt>
      <trkpt lat="49.08358" lon="-0.72901">
        <ele>89</ele>
        <time>2014-07-15T08:01:14Z</time>
      </trkpt>
      <trkpt lat="49.08349" lon="-0.72863">
        <ele>91</ele>
        <time>2014-07-15T08:01:24Z</time>
      </trkpt>
      <trkpt lat="49.08338" lon="-0.72821">
        <ele>93</ele>
        <time>2014-07-15T08:01:35Z</time>
      </trkpt>
      <trkpt lat="49.08327" lon="-0.72777">
        <ele>94</ele>
        <time>2014-07-15T08:01:46Z</time>
      </trkpt>
      <trkpt lat="49.08316" lon="-0.72734">
        <ele>95</ele>
        <time>2014-07-15T08:01:56Z</time>
      </trkpt>
      <trkpt lat="49.08306" lon="-0.72685">
        <ele>97</ele>
        <time>2014-07-15T08:02:06Z</time>
      </trkpt>
      <trkpt lat="49.08297" lon="-0.72627">
        <ele>97</ele>
        <time>2014-07-15T08:02:17Z</time>
      </trkpt>
      <trkpt lat="49.0829" lon="-0.72576">
        <ele>99</ele>
        <time>2014-07-15T08:02:27Z</time>
      </trkpt>
      <trkpt lat="49.08281" lon="-0.72519">
        <ele>100</ele>
        <time>2014-07-15T08:02:37Z</time>
      </trkpt>
      <trkpt lat="49.0827" lon="-0.72448">
        <ele>100</ele>
        <time>2014-07-15T08:02:48Z</time>
      </trkpt>
      <trkpt lat="49.08258" lon="-0.72378">
        <ele>100</ele>
        <time>2014-07-15T08:02:58Z</time>
      </trkpt>
      <trkpt lat="49.08245" lon="-0.72291">
        <ele>101</ele>
        <time>2014-07-15T08:03:09Z</time>
      </trkpt>
      <trkpt lat="49.08232" lon="-0.72211">
        <ele>101</ele>
        <time>2014-07-15T08:03:19Z</time>
      </trkpt>
      <trkpt lat="49.08221" lon="-0.72135">
        <ele>103</ele>
        <time>2014-07-15T08:03:30Z</time>
      </trkpt>
      <trkpt lat="49.08209" lon="-0.72063">
        <ele>105</ele>
        <time>2014-07-15T08:03:41Z</time>
      </trkpt>
      <trkpt lat="49.08198" lon="-0.7199">
        <ele>106</ele>
        <time>2014-07-15T08:03:52Z</time>
      </trkpt>
      <trkpt lat="49.08186" lon="-0.71914">
        <ele>107</ele>
        <time>2014-07-15T08:04:02Z</time>
      </trkpt>
      <trkpt lat="49.08166" lon="-0.71815">
        <ele>105</ele>
        <time>2014-07-15T08:04:13Z</time>
      </trkpt>
      <trkpt lat="49.08136" lon="-0.71679">
        <ele>101</ele>
        <time>2014-07-15T08:04:24Z</time>
      </trkpt>
      <trkpt lat="49.08136" lon="-0.71569">
        <ele>103</ele>
        <time>2014-07-15T08:04:35Z</time>
      </trkpt>
      <trkpt lat="49.08133" lon="-0.71502">
        <ele>105</ele>
        <time>2014-07-15T08:04:45Z</time>
      </trkpt>
      <trkpt lat="49.08127" lon="-0.71441">
        <ele>107</ele>
        <time>2014-07-15T08:04:55Z</time>
      </trkpt>
      <trkpt lat="49.08121" lon="-0.71381">
        <ele>110</ele>
        <time>2014-07-15T08:05:05Z</time>
      </trkpt>
      <trkpt lat="49.08114" lon="-0.71317">
        <ele>112</ele>
        <time>2014-07-15T08:05:16Z</time>
      </trkpt>
      <trkpt lat="49.08103" lon="-0.71255">
        <ele>113</ele>
        <time>2014-07-15T08:05:27Z</time>
      </trkpt>
      <trkpt lat="49.08091" lon="-0.71206">
        <ele>113</ele>
        <time>2014-07-15T08:05:37Z</time>
      </trkpt>
      <trkpt lat="49.08074" lon="-0.7119">
        <ele>115</ele>
        <time>2014-07-15T08:05:47Z</time>
      </trkpt>
      <trkpt lat="49.08057" lon="-0.71242">
        <ele>115</ele>
        <time>2014-07-15T08:05:58Z</time>
      </trkpt>
      <trkpt lat="49.08037" lon="-0.71303">
        <ele>117</ele>
        <time>2014-07-15T08:06:09Z</time>
      </trkpt>
      <trkpt lat="49.0802" lon="-0.71363">
        <ele>118</ele>
        <time>2014-07-15T08:06:19Z</time>
      </trkpt>
      <trkpt lat="49.08005" lon="-0.71439">
        <ele>117</ele>
        <time>2014-07-15T08:06:30Z</time>
      </trkpt>
      <trkpt lat="49.07988" lon="-0.71509">
        <ele>116</ele>
        <time>2014-07-15T08:06:40Z</time>
      </trkpt>
      <trkpt lat="49.07966" lon="-0.71585">
        <ele>114</ele>
        <time>2014-07-15T08:06:50Z</time>
      </trkpt>
      <trkpt lat="49.07941" lon="-0.71661">
        <ele>115</ele>
        <time>2014-07-15T08:07:01Z</time>
      </trkpt>
      <trkpt lat="49.0792" lon="-0.71727">
        <ele>116</ele>
        <time>2014-07-15T08:07:11Z</time>
      </trkpt>
      <trkpt lat="49.07899" lon="-0.71804">
        <ele>116</ele>
        <time>2014-07-15T08:07:22Z</time>
      </trkpt>
      <trkpt lat="49.07875" lon="-0.71869">
        <ele>116</ele>
        <time>2014-07-15T08:07:32Z</time>
      </trkpt>
      <trkpt lat="49.07837" lon="-0.71932">
        <ele>116</ele>
        <time>2014-07-15T08:07:43Z</time>
      </trkpt>
      <trkpt lat="49.07814" lon="-0.7199">
        <ele>118</ele>
        <time>2014-07-15T08:07:53Z</time>
      </trkpt>
      <trkpt lat="49.0783" lon="-0.72037">
        <ele>119</ele>
        <time>2014-07-15T08:08:04Z</time>
      </trkpt>
      <trkpt lat="49.07847" lon="-0.72079">
        <ele>122</ele>
        <time>2014-07-15T08:08:15Z</time>
      </trkpt>
      <trkpt lat="49.07855" lon="-0.72136">
        <ele>123</ele>
        <time>2014-07-15T08:08:26Z</time>
      </trkpt>
      <trkpt lat="49.07855" lon="-0.72193">
        <ele>124</ele>
        <time>2014-07-15T08:08:36Z</time>
      </trkpt>
      <trkpt lat="49.07855" lon="-0.72265">
        <ele>124</ele>
        <time>2014-07-15T08:08:47Z</time>
      </trkpt>
      <trkpt lat="49.07854" lon="-0.72343">
        <ele>123</ele>
        <time>2014-07-15T08:08:58Z</time>
      </trkpt>
      <trkpt lat="49.07852" lon="-0.72431">
        <ele>121</ele>
        <time>2014-07-15T08:09:09Z</time>
      </trkpt>
      <trkpt lat="49.0785" lon="-0.72518">
        <ele>120</ele>
        <time>2014-07-15T08:09:19Z</time>
      </trkpt>
      <trkpt lat="49.07849" lon="-0.72618">
        <ele>118</ele>
        <time>2014-07-15T08:09:30Z</time>
      </trkpt>
      <trkpt lat="49.07858" lon="-0.72729">
        <ele>116</ele>
        <time>2014-07-15T08:09:41Z</time>
      </trkpt>
      <trkpt lat="49.07874" lon="-0.7285">
        <ele>112</ele>
        <time>2014-07-15T08:09:51Z</time>
      </trkpt>
      <trkpt lat="49.07893" lon="-0.72978">
        <ele>106</ele>
        <time>2014-07-15T08:10:02Z</time>
      </trkpt>
      <trkpt lat="49.07962" lon="-0.73053">
        <ele>100</ele>
        <time>2014-07-15T08:10:12Z</time>
      </trkpt>
      <trkpt lat="49.08051" lon="-0.73106">
        <ele>95</ele>
        <time>2014-07-15T08:10:23Z</time>
      </trkpt>
      <trkpt lat="49.08136" lon="-0.73186">
        <ele>90</ele>
        <time>2014-07-15T08:10:33Z</time>
      </trkpt>
      <trkpt lat="49.08218" lon="-0.73276">
        <ele>81</ele>
        <time>2014-07-15T08:10:43Z</time>
      </trkpt>
      <trkpt lat="49.08302" lon="-0.73342">
        <ele>74</ele>
        <time>2014-07-15T08:10:54Z</time>
      </trkpt>
      <trkpt lat="49.08374" lon="-0.73374">
        <ele>70</ele>
        <time>2014-07-15T08:11:04Z</time>
      </trkpt>
      <trkpt lat="49.08406" lon="-0.73454">
        <ele>67</ele>
        <time>2014-07-15T08:11:15Z</time>
      </trkpt>
      <trkpt lat="49.08426" lon="-0.7348">
        <ele>61</ele>
        <time>2014-07-15T08:11:25Z</time>
      </trkpt>
      <trkpt lat="49.0844" lon="-0.73562">
        <ele>61</ele>
        <time>2014-07-15T08:11:36Z</time>
      </trkpt>
      <trkpt lat="49.0847" lon="-0.73676">
        <ele>58</ele>
        <time>2014-07-15T08:11:46Z</time>
      </trkpt>
      <trkpt lat="49.08493" lon="-0.7376">
        <ele>57</ele>
        <time>2014-07-15T08:11:57Z</time>
      </trkpt>
      <trkpt lat="49.08509" lon="-0.73812">
        <ele>59</ele>
        <time>2014-07-15T08:12:07Z</time>
      </trkpt>
      <trkpt lat="49.08527" lon="-0.73859">
        <ele>61</ele>
        <time>2014-07-15T08:12:18Z</time>
      </trkpt>
      <trkpt lat="49.08542" lon="-0.73897">
        <ele>63</ele>
        <time>2014-07-15T08:12:28Z</time>
      </trkpt>
      <trkpt lat="49.08558" lon="-0.73937">
        <ele>65</ele>
        <time>2014-07-15T08:12:39Z</time>
      </trkpt>
      <trkpt lat="49.08572" lon="-0.73967">
        <ele>67</ele>
        <time>2014-07-15T08:12:49Z</time>
      </trkpt>
      <trkpt lat="49.08585" lon="-0.74004">
        <ele>69</ele>
        <time>2014-07-15T08:13:00Z</time>
      </trkpt>
      <trkpt lat="49.08598" lon="-0.74039">
        <ele>71</ele>
        <time>2014-07-15T08:13:10Z</time>
      </trkpt>
      <trkpt lat="49.08612" lon="-0.74079">
        <ele>72</ele>
        <time>2014-07-15T08:13:21Z</time>
      </trkpt>
      <trkpt lat="49.08625" lon="-0.74118">
        <ele>73</ele>
        <time>2014-07-15T08:13:31Z</time>
      </trkpt>
      <trkpt lat="49.08621" lon="-0.74163">
        <ele>73</ele>
        <time>2014-07-15T08:13:42Z</time>
      </trkpt>
      <trkpt lat="49.08589" lon="-0.74199">
        <ele>75</ele>
        <time>2014-07-15T08:13:53Z</time>
      </trkpt>
      <trkpt lat="49.08557" lon="-0.74231">
        <ele>75</ele>
        <time>2014-07-15T08:14:04Z</time>
      </trkpt>
      <trkpt lat="49.0853" lon="-0.74259">
        <ele>76</ele>
        <time>2014-07-15T08:14:14Z</time>
      </trkpt>
      <trkpt lat="49.085" lon="-0.74289">
        <ele>78</ele>
        <time>2014-07-15T08:14:25Z</time>
      </trkpt>
      <trkpt lat="49.08473" lon="-0.74316">
        <ele>79</ele>
        <time>2014-07-15T08:14:35Z</time>
      </trkpt>
      <trkpt lat="49.08445" lon="-0.74342">
        <ele>81</ele>
        <time>2014-07-15T08:14:45Z</time>
      </trkpt>
      <trkpt lat="49.08416" lon="-0.74372">
        <ele>82</ele>
        <time>2014-07-15T08:14:56Z</time>
      </trkpt>
      <trkpt lat="49.08385" lon="-0.74401">
        <ele>84</ele>
        <time>2014-07-15T08:15:07Z</time>
      </trkpt>
      <trkpt lat="49.08357" lon="-0.74429">
        <ele>85</ele>
        <time>2014-07-15T08:15:17Z</time>
      </trkpt>
      <trkpt lat="49.08326" lon="-0.74459">
        <ele>86</ele>
        <time>2014-07-15T08:15:28Z</time>
      </trkpt>
      <trkpt lat="49.08294" lon="-0.74489">
        <ele>86</ele>
        <time>2014-07-15T08:15:38Z</time>
      </trkpt>
      <trkpt lat="49.08258" lon="-0.74523">
        <ele>87</ele>
        <time>2014-07-15T08:15:49Z</time>
      </trkpt>
      <trkpt lat="49.0822" lon="-0.74554">
        <ele>87</ele>
        <time>2014-07-15T08:16:00Z</time>
      </trkpt>
      <trkpt lat="49.08182" lon="-0.74586">
        <ele>86</ele>
        <time>2014-07-15T08:16:10Z</time>
      </trkpt>
      <trkpt lat="49.0813" lon="-0.74636">
        <ele>86</ele>
        <time>2014-07-15T08:16:20Z</time>
      </trkpt>
      <trkpt lat="49.08042" lon="-0.74709">
        <ele>80</ele>
        <time>2014-07-15T08:16:31Z</time>
      </trkpt>
      <trkpt lat="49.07998" lon="-0.74746">
        <ele>80</ele>
        <time>2014-07-15T08:16:41Z</time>
      </trkpt>
      <trkpt lat="49.07957" lon="-0.74789">
        <ele>80</ele>
        <time>2014-07-15T08:16:52Z</time>
      </trkpt>
      <trkpt lat="49.07921" lon="-0.74833">
        <ele>81</ele>
        <time>2014-07-15T08:17:02Z</time>
      </trkpt>
      <trkpt lat="49.07874" lon="-0.74895">
        <ele>80</ele>
        <time>2014-07-15T08:17:13Z</time>
      </trkpt>
      <trkpt lat="49.07834" lon="-0.74949">
        <ele>80</ele>
        <time>2014-07-15T08:17:23Z</time>
      </trkpt>
      <trkpt lat="49.07793" lon="-0.74996">
        <ele>81</ele>
        <time>2014-07-15T08:17:33Z</time>
      </trkpt>
      <trkpt lat="49.07753" lon="-0.75043">
        <ele>82</ele>
        <time>2014-07-15T08:17:43Z</time>
      </trkpt>
      <trkpt lat="49.07719" lon="-0.75084">
        <ele>82</ele>
        <time>2014-07-15T08:17:53Z</time>
      </trkpt>
      <trkpt lat="49.0769" lon="-0.7512">
        <ele>84</ele>
        <time>2014-07-15T08:18:04Z</time>
      </trkpt>
      <trkpt lat="49.07665" lon="-0.75148">
        <ele>86</ele>
        <time>2014-07-15T08:18:14Z</time>
      </trkpt>
      <trkpt lat="49.07632" lon="-0.75179">
        <ele>88</ele>
        <time>2014-07-15T08:18:25Z</time>
      </trkpt>
      <trkpt lat="49.07601" lon="-0.75208">
        <ele>90</ele>
        <time>2014-07-15T08:18:36Z</time>
      </trkpt>
      <trkpt lat="49.07573" lon="-0.75235">
        <ele>91</ele>
        <time>2014-07-15T08:18:46Z</time>
      </trkpt>
      <trkpt lat="49.07545" lon="-0.75267">
        <ele>93</ele>
        <time>2014-07-15T08:18:57Z</time>
      </trkpt>
      <trkpt lat="49.07518" lon="-0.75305">
        <ele>94</ele>
        <time>2014-07-15T08:19:08Z</time>
      </trkpt>
      <trkpt lat="49.07494" lon="-0.75342">
        <ele>95</ele>
        <time>2014-07-15T08:19:18Z</time>
      </trkpt>
      <trkpt lat="49.07468" lon="-0.75387">
        <ele>96</ele>
        <time>2014-07-15T08:19:29Z</time>
      </trkpt>
      <trkpt lat="49.07443" lon="-0.75435">
        <ele>97</ele>
        <time>2014-07-15T08:19:40Z</time>
      </trkpt>
      <trkpt lat="49.07417" lon="-0.7548">
        <ele>98</ele>
        <time>2014-07-15T08:19:50Z</time>
      </trkpt>
      <trkpt lat="49.07391" lon="-0.75529">
        <ele>99</ele>
        <time>2014-07-15T08:20:00Z</time>
      </trkpt>
      <trkpt lat="49.07362" lon="-0.75581">
        <ele>100</ele>
        <time>2014-07-15T08:20:11Z</time>
      </trkpt>
      <trkpt lat="49.07334" lon="-0.75635">
        <ele>100</ele>
        <time>2014-07-15T08:20:22Z</time>
      </trkpt>
      <trkpt lat="49.07307" lon="-0.75686">
        <ele>101</ele>
        <time>2014-07-15T08:20:32Z</time>
      </trkpt>
      <trkpt lat="49.07278" lon="-0.75737">
        <ele>101</ele>
        <time>2014-07-15T08:20:42Z</time>
      </trkpt>
      <trkpt lat="49.07244" lon="-0.75773">
        <ele>103</ele>
        <time>2014-07-15T08:20:52Z</time>
      </trkpt>
      <trkpt lat="49.07205" lon="-0.75808">
        <ele>103</ele>
        <time>2014-07-15T08:21:03Z</time>
      </trkpt>
      <trkpt lat="49.07171" lon="-0.75838">
        <ele>104</ele>
        <time>2014-07-15T08:21:13Z</time>
      </trkpt>
      <trkpt lat="49.07138" lon="-0.75868">
        <ele>105</ele>
        <time>2014-07-15T08:21:24Z</time>
      </trkpt>
      <trkpt lat="49.07106" lon="-0.75897">
        <ele>107</ele>
        <time>2014-07-15T08:21:34Z</time>
      </trkpt>
      <trkpt lat="49.07072" lon="-0.75933">
        <ele>108</ele>
        <time>2014-07-15T08:21:45Z</time>
      </trkpt>
      <trkpt lat="49.07038" lon="-0.75973">
        <ele>108</ele>
        <time>2014-07-15T08:21:56Z</time>
      </trkpt>
      <trkpt lat="49.07008" lon="-0.76025">
        <ele>108</ele>
        <time>2014-07-15T08:22:06Z</time>
      </trkpt>
      <trkpt lat="49.06984" lon="-0.76072">
        <ele>109</ele>
        <time>2014-07-15T08:22:16Z</time>
      </trkpt>
      <trkpt lat="49.06954" lon="-0.76119">
        <ele>110</ele>
        <time>2014-07-15T08:22:27Z</time>
      </trkpt>
      <trkpt lat="49.06925" lon="-0.76162">
        <ele>110</ele>
        <time>2014-07-15T08:22:37Z</time>
      </trkpt>
      <trkpt lat="49.06899" lon="-0.76206">
        <ele>112</ele>
        <time>2014-07-15T08:22:47Z</time>
      </trkpt>
      <trkpt lat="49.06872" lon="-0.76249">
        <ele>113</ele>
        <time>2014-07-15T08:22:57Z</time>
      </trkpt>
      <trkpt lat="49.06843" lon="-0.76292">
        <ele>114</ele>
        <time>2014-07-15T08:23:08Z</time>
      </trkpt>
      <trkpt lat="49.06816" lon="-0.76343">
        <ele>114</ele>
        <time>2014-07-15T08:23:19Z</time>
      </trkpt>
      <trkpt lat="49.06792" lon="-0.76387">
        <ele>115</ele>
        <time>2014-07-15T08:23:29Z</time>
      </trkpt>
      <trkpt lat="49.06769" lon="-0.76436">
        <ele>115</ele>
        <time>2014-07-15T08:23:40Z</time>
      </trkpt>
      <trkpt lat="49.06741" lon="-0.76484">
        <ele>117</ele>
        <time>2014-07-15T08:23:51Z</time>
      </trkpt>
      <trkpt lat="49.06706" lon="-0.76537">
        <ele>117</ele>
        <time>2014-07-15T08:24:02Z</time>
      </trkpt>
      <trkpt lat="49.06675" lon="-0.76595">
        <ele>118</ele>
        <time>2014-07-15T08:24:13Z</time>
      </trkpt>
      <trkpt lat="49.0665" lon="-0.76653">
        <ele>118</ele>
        <time>2014-07-15T08:24:24Z</time>
      </trkpt>
      <trkpt lat="49.0664" lon="-0.76708">
        <ele>119</ele>
        <time>2014-07-15T08:24:35Z</time>
      </trkpt>
      <trkpt lat="49.06633" lon="-0.76752">
        <ele>120</ele>
        <time>2014-07-15T08:24:46Z</time>
      </trkpt>
      <trkpt lat="49.06633" lon="-0.76789">
        <ele>119</ele>
        <time>2014-07-15T08:24:56Z</time>
      </trkpt>
      <trkpt lat="49.0666" lon="-0.7682">
        <ele>120</ele>
        <time>2014-07-15T08:25:07Z</time>
      </trkpt>
      <trkpt lat="49.06689" lon="-0.76854">
        <ele>122</ele>
        <time>2014-07-15T08:25:17Z</time>
      </trkpt>
      <trkpt lat="49.06717" lon="-0.7689">
        <ele>124</ele>
        <time>2014-07-15T08:25:27Z</time>
      </trkpt>
      <trkpt lat="49.06747" lon="-0.76925">
        <ele>126</ele>
        <time>2014-07-15T08:25:38Z</time>
      </trkpt>
      <trkpt lat="49.06777" lon="-0.76962">
        <ele>126</ele>
        <time>2014-07-15T08:25:49Z</time>
      </trkpt>
      <trkpt lat="49.06805" lon="-0.76995">
        <ele>127</ele>
        <time>2014-07-15T08:25:59Z</time>
      </trkpt>
      <trkpt lat="49.06837" lon="-0.77033">
        <ele>127</ele>
        <time>2014-07-15T08:26:10Z</time>
      </trkpt>
      <trkpt lat="49.06861" lon="-0.77062">
        <ele>127</ele>
        <time>2014-07-15T08:26:21Z</time>
      </trkpt>
      <trkpt lat="49.06872" lon="-0.77084">
        <ele>127</ele>
        <time>2014-07-15T08:26:32Z</time>
      </trkpt>
      <trkpt lat="49.06844" lon="-0.77131">
        <ele>127</ele>
        <time>2014-07-15T08:26:43Z</time>
      </trkpt>
      <trkpt lat="49.06795" lon="-0.77184">
        <ele>127</ele>
        <time>2014-07-15T08:26:54Z</time>
      </trkpt>
      <trkpt lat="49.0674" lon="-0.77238">
        <ele>127</ele>
        <time>2014-07-15T08:27:05Z</time>
      </trkpt>
      <trkpt lat="49.06702" lon="-0.77268">
        <ele>125</ele>
        <time>2014-07-15T08:27:15Z</time>
      </trkpt>
      <trkpt lat="49.06691" lon="-0.77249">
        <ele>125</ele>
        <time>2014-07-15T08:27:26Z</time>
      </trkpt>
      <trkpt lat="49.06687" lon="-0.77179">
        <ele>125</ele>
        <time>2014-07-15T08:27:37Z</time>
      </trkpt>
      <trkpt lat="49.06676" lon="-0.77095">
        <ele>125</ele>
        <time>2014-07-15T08:27:48Z</time>
      </trkpt>
      <trkpt lat="49.06657" lon="-0.77013">
        <ele>124</ele>
        <time>2014-07-15T08:27:58Z</time>
      </trkpt>
      <trkpt lat="49.06595" lon="-0.76933">
        <ele>121</ele>
        <time>2014-07-15T08:28:09Z</time>
      </trkpt>
      <trkpt lat="49.06541" lon="-0.76947">
        <ele>118</ele>
        <time>2014-07-15T08:28:20Z</time>
      </trkpt>
      <trkpt lat="49.06542" lon="-0.77004">
        <ele>118</ele>
        <time>2014-07-15T08:28:30Z</time>
      </trkpt>
      <trkpt lat="49.06562" lon="-0.77069">
        <ele>120</ele>
        <time>2014-07-15T08:28:41Z</time>
      </trkpt>
      <trkpt lat="49.0659" lon="-0.77106">
        <ele>121</ele>
        <time>2014-07-15T08:28:51Z</time>
      </trkpt>
      <trkpt lat="49.06599" lon="-0.77117">
        <ele>122</ele>
        <time>2014-07-15T08:28:52Z</time>
      </trkpt>
    </trkseg>
  </trk>
</gpx>